sensor_id;sensor_type;location;lat;lon;timestamp;pressure;altitude;pressure_sealevel;temperature;humidity
72110;BME280;59983;52.010;5.420;2024-03-08T09:04:05;101364.38;;;16.32;65.12
72110;BME280;59983;52.010;5.420;2024-03-08T09:06:32;101363.72;;;16.42;65.04
72110;BME280;59983;52.010;5.420;2024-03-08T09:08:58;101367.34;;;16.50;65.74
72110;BME280;59983;52.010;5.420;2024-03-08T09:11:29;101358.38;;;16.80;65.39
72110;BME280;59983;52.010;5.420;2024-03-08T09:13:56;101359.53;;;17.19;66.82
72110;BME280;59983;52.010;5.420;2024-03-08T09:16:23;101356.63;;;17.42;63.05
72110;BME280;59983;52.010;5.420;2024-03-08T09:18:51;101345.28;;;17.44;62.38
72110;BME280;59983;52.010;5.420;2024-03-08T09:21:17;101349.59;;;17.48;62.40
72110;BME280;59983;52.010;5.420;2024-03-08T09:23:46;101346.53;;;17.53;62.29
72110;BME280;59983;52.010;5.420;2024-03-08T09:26:13;101346.97;;;17.59;62.19
72110;BME280;59983;52.010;5.420;2024-03-08T09:28:53;101347.78;;;17.63;61.91
72110;BME280;59983;52.010;5.420;2024-03-08T09:31:23;101348.59;;;17.67;62.08
72110;BME280;59983;52.010;5.420;2024-03-08T09:33:50;101344.34;;;17.70;61.98
72110;BME280;59983;52.010;5.420;2024-03-08T09:36:17;101335.38;;;17.76;61.76
72110;BME280;59983;52.010;5.420;2024-03-08T09:38:44;101331.06;;;17.82;61.52
72110;BME280;59983;52.010;5.420;2024-03-08T09:41:10;101329.53;;;17.85;61.17
72110;BME280;59983;52.010;5.420;2024-03-08T09:43:37;101327.19;;;17.87;61.25
72110;BME280;59983;52.010;5.420;2024-03-08T09:46:04;101324.06;;;17.89;60.55
72110;BME280;59983;52.010;5.420;2024-03-08T09:48:33;101304.50;;;17.94;59.79
72110;BME280;59983;52.010;5.420;2024-03-08T09:51:01;101312.34;;;17.99;59.53
72110;BME280;59983;52.010;5.420;2024-03-08T09:53:28;101303.34;;;18.02;59.15
72110;BME280;59983;52.010;5.420;2024-03-08T09:55:54;101304.16;;;18.06;59.33
72110;BME280;59983;52.010;5.420;2024-03-08T09:58:21;101301.44;;;18.09;58.94
72110;BME280;59983;52.010;5.420;2024-03-08T10:01:00;101289.28;;;18.10;59.00
72110;BME280;59983;52.010;5.420;2024-03-08T10:03:32;101292.84;;;18.15;58.67
72110;BME280;59983;52.010;5.420;2024-03-08T10:05:59;101292.84;;;18.18;58.61
72110;BME280;59983;52.010;5.420;2024-03-08T10:08:27;101284.59;;;18.18;58.36
72110;BME280;59983;52.010;5.420;2024-03-08T10:10:57;101273.66;;;18.22;58.11
72110;BME280;59983;52.010;5.420;2024-03-08T10:13:27;101274.44;;;18.22;57.44
72110;BME280;59983;52.010;5.420;2024-03-08T10:15:54;101265.81;;;18.24;58.38
72110;BME280;59983;52.010;5.420;2024-03-08T10:18:21;101265.03;;;18.23;58.14
72110;BME280;59983;52.010;5.420;2024-03-08T10:21:05;101257.19;;;18.22;58.63
72110;BME280;59983;52.010;5.420;2024-03-08T10:23:33;101250.91;;;18.25;57.65
72110;BME280;59983;52.010;5.420;2024-03-08T10:26:10;101249.75;;;18.29;57.57
72110;BME280;59983;52.010;5.420;2024-03-08T10:28:39;101242.28;;;18.30;57.21
72110;BME280;59983;52.010;5.420;2024-03-08T10:31:05;101241.50;;;18.33;57.34
72110;BME280;59983;52.010;5.420;2024-03-08T10:33:32;101247.41;;;18.35;57.46
72110;BME280;59983;52.010;5.420;2024-03-08T10:36:00;101238.75;;;18.36;57.18
72110;BME280;59983;52.010;5.420;2024-03-08T10:38:31;101232.50;;;18.39;57.51
72110;BME280;59983;52.010;5.420;2024-03-08T10:41:00;101229.75;;;18.39;57.53
72110;BME280;59983;52.010;5.420;2024-03-08T10:43:31;101224.66;;;18.42;57.35
72110;BME280;59983;52.010;5.420;2024-03-08T10:46:16;101223.09;;;18.44;57.48
72110;BME280;59983;52.010;5.420;2024-03-08T10:48:46;101217.19;;;18.46;57.49
72110;BME280;59983;52.010;5.420;2024-03-08T10:51:15;101197.59;;;18.47;57.39
72110;BME280;59983;52.010;5.420;2024-03-08T10:53:43;101209.78;;;18.50;57.63
72110;BME280;59983;52.010;5.420;2024-03-08T10:56:11;101191.72;;;18.49;57.14
72110;BME280;59983;52.010;5.420;2024-03-08T10:58:41;101195.25;;;18.53;56.81
72110;BME280;59983;52.010;5.420;2024-03-08T11:01:10;101180.75;;;18.56;57.23
72110;BME280;59983;52.010;5.420;2024-03-08T11:06:22;101170.94;;;18.58;57.15
72110;BME280;59983;52.010;5.420;2024-03-08T11:08:50;101167.38;;;18.61;56.90
72110;BME280;59983;52.010;5.420;2024-03-08T11:11:25;101153.66;;;18.61;57.01
72110;BME280;59983;52.010;5.420;2024-03-08T11:14:02;101149.34;;;18.60;57.24
72110;BME280;59983;52.010;5.420;2024-03-08T11:19:06;101141.06;;;18.64;57.45
72110;BME280;59983;52.010;5.420;2024-03-08T11:21:37;101134.81;;;18.63;57.15
72110;BME280;59983;52.010;5.420;2024-03-08T11:24:10;101134.00;;;18.63;56.76
72110;BME280;59983;52.010;5.420;2024-03-08T11:26:38;101127.75;;;18.62;56.85
72110;BME280;59983;52.010;5.420;2024-03-08T11:32:14;101117.16;;;18.64;56.98
72110;BME280;59983;52.010;5.420;2024-03-08T11:34:47;101111.66;;;18.64;56.98
72110;BME280;59983;52.010;5.420;2024-03-08T11:37:18;101115.56;;;18.63;56.93
72110;BME280;59983;52.010;5.420;2024-03-08T11:39:50;101111.66;;;18.64;56.90
72110;BME280;59983;52.010;5.420;2024-03-08T11:42:18;101103.78;;;18.63;56.84
72110;BME280;59983;52.010;5.420;2024-03-08T11:44:46;101086.13;;;18.64;56.69
72110;BME280;59983;52.010;5.420;2024-03-08T11:47:15;101094.03;;;18.65;56.71
72110;BME280;59983;52.010;5.420;2024-03-08T11:49:43;101081.81;;;18.63;56.86
72110;BME280;59983;52.010;5.420;2024-03-08T11:52:12;101080.63;;;18.64;56.49
72110;BME280;59983;52.010;5.420;2024-03-08T11:55:14;101083.41;;;18.67;56.77
72110;BME280;59983;52.010;5.420;2024-03-08T12:01:30;101067.34;;;18.66;56.47
72110;BME280;59983;52.010;5.420;2024-03-08T12:16:10;101050.44;;;18.71;56.50
72110;BME280;59983;52.010;5.420;2024-03-08T12:22:30;101027.28;;;18.76;56.40
72110;BME280;59983;52.010;5.420;2024-03-08T12:25:04;101029.22;;;18.79;56.46
72110;BME280;59983;52.010;5.420;2024-03-08T12:27:32;101033.94;;;18.82;56.35
72110;BME280;59983;52.010;5.420;2024-03-08T12:36:59;101017.03;;;18.87;56.06
72110;BME280;59983;52.010;5.420;2024-03-08T12:39:26;101013.09;;;18.88;55.99
72110;BME280;59983;52.010;5.420;2024-03-08T12:41:54;101017.03;;;18.87;55.61
72110;BME280;59983;52.010;5.420;2024-03-08T12:44:21;101013.50;;;18.86;56.25
72110;BME280;59983;52.010;5.420;2024-03-08T12:46:48;101013.91;;;18.85;56.13
72110;BME280;59983;52.010;5.420;2024-03-08T12:49:19;101012.34;;;18.84;56.07
72110;BME280;59983;52.010;5.420;2024-03-08T12:51:48;101002.53;;;18.83;55.96
72110;BME280;59983;52.010;5.420;2024-03-08T12:54:15;100997.41;;;18.81;56.22
72110;BME280;59983;52.010;5.420;2024-03-08T12:56:42;101002.91;;;18.81;56.20
72110;BME280;59983;52.010;5.420;2024-03-08T12:59:08;100996.25;;;18.82;55.67
72110;BME280;59983;52.010;5.420;2024-03-08T13:01:36;100984.84;;;18.84;55.56
72110;BME280;59983;52.010;5.420;2024-03-08T13:04:06;100979.34;;;18.84;55.83
72110;BME280;59983;52.010;5.420;2024-03-08T13:06:35;100982.09;;;18.84;55.69
72110;BME280;59983;52.010;5.420;2024-03-08T13:09:02;100975.00;;;18.86;55.26
72110;BME280;59983;52.010;5.420;2024-03-08T13:11:32;100969.91;;;18.88;55.76
72110;BME280;59983;52.010;5.420;2024-03-08T13:14:04;100965.97;;;18.93;55.72
72110;BME280;59983;52.010;5.420;2024-03-08T13:16:32;100967.13;;;18.95;55.80
72110;BME280;59983;52.010;5.420;2024-03-08T13:18:59;100962.78;;;19.02;54.98
72110;BME280;59983;52.010;5.420;2024-03-08T13:21:26;100967.06;;;19.06;55.10
72110;BME280;59983;52.010;5.420;2024-03-08T13:23:52;100956.06;;;19.10;55.18
72110;BME280;59983;52.010;5.420;2024-03-08T13:26:20;100950.53;;;19.13;55.05
72110;BME280;59983;52.010;5.420;2024-03-08T13:28:47;100956.81;;;19.17;54.90
72110;BME280;59983;52.010;5.420;2024-03-08T13:31:20;100944.59;;;19.22;54.20
72110;BME280;59983;52.010;5.420;2024-03-08T13:33:47;100949.69;;;19.27;54.70
72110;BME280;59983;52.010;5.420;2024-03-08T13:36:14;100952.78;;;19.33;54.26
72110;BME280;59983;52.010;5.420;2024-03-08T13:38:46;100931.56;;;19.37;54.51
72110;BME280;59983;52.010;5.420;2024-03-08T13:41:13;100951.16;;;19.42;54.50
72110;BME280;59983;52.010;5.420;2024-03-08T13:43:47;100928.75;;;19.47;54.56
72110;BME280;59983;52.010;5.420;2024-03-08T13:46:17;100940.50;;;19.51;54.32
72110;BME280;59983;52.010;5.420;2024-03-08T13:48:44;100936.94;;;19.55;54.64
72110;BME280;59983;52.010;5.420;2024-03-08T13:51:11;100919.66;;;19.58;54.33
72110;BME280;59983;52.010;5.420;2024-03-08T13:53:41;100922.38;;;19.61;54.49
72110;BME280;59983;52.010;5.420;2024-03-08T13:56:08;100919.59;;;19.65;54.66
72110;BME280;59983;52.010;5.420;2024-03-08T13:58:37;100909.75;;;19.67;54.31
72110;BME280;59983;52.010;5.420;2024-03-08T14:01:06;100916.03;;;19.71;54.46
72110;BME280;59983;52.010;5.420;2024-03-08T14:03:38;100903.81;;;19.72;54.79
72110;BME280;59983;52.010;5.420;2024-03-08T14:06:08;100901.03;;;19.76;54.49
72110;BME280;59983;52.010;5.420;2024-03-08T14:08:36;100901.00;;;19.79;54.65
72110;BME280;59983;52.010;5.420;2024-03-08T14:11:05;100892.34;;;19.81;54.51
72110;BME280;59983;52.010;5.420;2024-03-08T14:13:43;100891.94;;;19.83;54.71
72110;BME280;59983;52.010;5.420;2024-03-08T14:16:13;100870.69;;;19.83;54.50
72110;BME280;59983;52.010;5.420;2024-03-08T14:18:40;100873.41;;;19.87;54.38
72110;BME280;59983;52.010;5.420;2024-03-08T14:21:08;100867.50;;;19.88;54.38
72110;BME280;59983;52.010;5.420;2024-03-08T14:23:35;100873.75;;;19.92;54.43
72110;BME280;59983;52.010;5.420;2024-03-08T14:26:05;100870.56;;;19.97;53.91
72110;BME280;59983;52.010;5.420;2024-03-08T14:28:34;100865.38;;;20.03;54.05
72110;BME280;59983;52.010;5.420;2024-03-08T14:31:03;100857.91;;;20.03;54.31
72110;BME280;59983;52.010;5.420;2024-03-08T14:33:33;100858.28;;;20.05;54.15
72110;BME280;59983;52.010;5.420;2024-03-08T14:36:00;100849.97;;;20.09;53.98
72110;BME280;59983;52.010;5.420;2024-03-08T14:38:28;100852.75;;;20.09;53.57
72110;BME280;59983;52.010;5.420;2024-03-08T14:40:55;100842.09;;;20.11;53.96
72110;BME280;59983;52.010;5.420;2024-03-08T14:43:22;100835.75;;;20.14;53.98
72110;BME280;59983;52.010;5.420;2024-03-08T14:45:49;100833.38;;;20.16;53.79
72110;BME280;59983;52.010;5.420;2024-03-08T14:48:17;100835.72;;;20.18;53.45
72110;BME280;59983;52.010;5.420;2024-03-08T14:50:44;100823.94;;;20.17;53.74
72110;BME280;59983;52.010;5.420;2024-03-08T14:53:14;100811.66;;;20.22;53.72
72110;BME280;59983;52.010;5.420;2024-03-08T14:55:43;100825.06;;;20.20;53.81
72110;BME280;59983;52.010;5.420;2024-03-08T14:58:13;100816.88;;;20.16;53.77
72110;BME280;59983;52.010;5.420;2024-03-08T15:00:40;100802.69;;;20.14;53.98
72110;BME280;59983;52.010;5.420;2024-03-08T15:03:08;100803.50;;;20.15;54.10
72110;BME280;59983;52.010;5.420;2024-03-08T15:05:39;100789.75;;;20.11;53.90
72110;BME280;59983;52.010;5.420;2024-03-08T15:08:08;100798.81;;;20.12;53.95
72110;BME280;59983;52.010;5.420;2024-03-08T15:10:46;100787.41;;;20.09;53.97
72110;BME280;59983;52.010;5.420;2024-03-08T15:13:14;100792.56;;;20.07;53.71
72110;BME280;59983;52.010;5.420;2024-03-08T15:15:49;100786.69;;;20.05;54.02
72110;BME280;59983;52.010;5.420;2024-03-08T15:18:23;100780.38;;;20.05;54.10
72110;BME280;59983;52.010;5.420;2024-03-08T15:20:52;100781.19;;;20.05;54.15
72110;BME280;59983;52.010;5.420;2024-03-08T15:23:19;100774.50;;;20.03;54.12
72110;BME280;59983;52.010;5.420;2024-03-08T15:25:47;100774.94;;;20.01;54.03
72110;BME280;59983;52.010;5.420;2024-03-08T15:28:16;100763.56;;;19.99;54.17
72110;BME280;59983;52.010;5.420;2024-03-08T15:30:48;100764.31;;;20.00;54.14
72110;BME280;59983;52.010;5.420;2024-03-08T15:33:20;100762.75;;;19.99;54.36
72110;BME280;59983;52.010;5.420;2024-03-08T15:35:52;100762.75;;;19.99;54.27
72110;BME280;59983;52.010;5.420;2024-03-08T15:38:25;100760.00;;;19.99;54.61
72110;BME280;59983;52.010;5.420;2024-03-08T15:40:54;100745.47;;;19.98;54.41
72110;BME280;59983;52.010;5.420;2024-03-08T15:43:22;100754.50;;;19.99;54.69
72110;BME280;59983;52.010;5.420;2024-03-08T15:45:48;100750.19;;;19.98;54.82
72110;BME280;59983;52.010;5.420;2024-03-08T15:48:15;100750.97;;;19.98;54.52
72110;BME280;59983;52.010;5.420;2024-03-08T15:50:42;100744.69;;;19.98;54.81
72110;BME280;59983;52.010;5.420;2024-03-08T15:53:09;100742.72;;;19.98;54.94
72110;BME280;59983;52.010;5.420;2024-03-08T15:55:39;100745.06;;;20.00;55.00
72110;BME280;59983;52.010;5.420;2024-03-08T15:58:07;100732.44;;;20.02;55.35
72110;BME280;59983;52.010;5.420;2024-03-08T16:00:39;100721.38;;;20.06;54.87
72110;BME280;59983;52.010;5.420;2024-03-08T16:03:15;100728.03;;;20.08;55.08
72110;BME280;59983;52.010;5.420;2024-03-08T16:05:42;100723.25;;;20.13;55.08
72110;BME280;59983;52.010;5.420;2024-03-08T16:08:13;100723.25;;;20.13;55.22
72110;BME280;59983;52.010;5.420;2024-03-08T16:10:44;100732.69;;;20.12;54.57
72110;BME280;59983;52.010;5.420;2024-03-08T16:13:22;100720.13;;;20.11;54.68
72110;BME280;59983;52.010;5.420;2024-03-08T16:15:51;100735.09;;;20.09;54.88
72110;BME280;59983;52.010;5.420;2024-03-08T16:18:19;100723.66;;;20.11;54.82
72110;BME280;59983;52.010;5.420;2024-03-08T16:20:52;100728.34;;;20.14;54.68
72110;BME280;59983;52.010;5.420;2024-03-08T16:23:22;100714.97;;;20.16;54.70
72110;BME280;59983;52.010;5.420;2024-03-08T16:25:49;100720.81;;;20.18;54.75
72110;BME280;59983;52.010;5.420;2024-03-08T16:28:16;100719.22;;;20.21;54.95
72110;BME280;59983;52.010;5.420;2024-03-08T16:30:44;100721.53;;;20.22;54.80
72110;BME280;59983;52.010;5.420;2024-03-08T16:33:21;100714.44;;;20.25;55.00
72110;BME280;59983;52.010;5.420;2024-03-08T16:35:49;100714.44;;;20.25;55.04
72110;BME280;59983;52.010;5.420;2024-03-08T16:38:16;100714.88;;;20.23;55.12
72110;BME280;59983;52.010;5.420;2024-03-08T16:40:44;100724.69;;;20.24;55.01
72110;BME280;59983;52.010;5.420;2024-03-08T16:43:12;100713.28;;;20.22;54.99
72110;BME280;59983;52.010;5.420;2024-03-08T16:45:41;100706.22;;;20.21;55.40
72110;BME280;59983;52.010;5.420;2024-03-08T16:48:09;100708.19;;;20.21;55.10
72110;BME280;59983;52.010;5.420;2024-03-08T16:50:36;100708.63;;;20.19;55.25
72110;BME280;59983;52.010;5.420;2024-03-08T16:53:03;100710.59;;;20.19;55.37
72110;BME280;59983;52.010;5.420;2024-03-08T16:55:31;100706.28;;;20.18;55.18
72110;BME280;59983;52.010;5.420;2024-03-08T16:57:58;100704.72;;;20.17;55.32
72110;BME280;59983;52.010;5.420;2024-03-08T17:00:25;100709.06;;;20.14;55.33
72110;BME280;59983;52.010;5.420;2024-03-08T17:02:56;100700.44;;;20.12;55.51
72110;BME280;59983;52.010;5.420;2024-03-08T17:05:25;100702.84;;;20.10;55.51
72110;BME280;59983;52.010;5.420;2024-03-08T17:07:58;100706.78;;;20.09;55.53
72110;BME280;59983;52.010;5.420;2024-03-08T17:10:28;100702.47;;;20.08;55.75
72110;BME280;59983;52.010;5.420;2024-03-08T17:12:56;100703.28;;;20.05;55.43
72110;BME280;59983;52.010;5.420;2024-03-08T17:15:26;100700.16;;;20.03;55.44
72110;BME280;59983;52.010;5.420;2024-03-08T17:17:55;100706.09;;;20.01;55.50
72110;BME280;59983;52.010;5.420;2024-03-08T17:20:26;100705.72;;;19.99;55.27
72110;BME280;59983;52.010;5.420;2024-03-08T17:22:55;100707.34;;;19.97;55.10
72110;BME280;59983;52.010;5.420;2024-03-08T17:25:25;100705.38;;;19.94;55.21
72110;BME280;59983;52.010;5.420;2024-03-08T17:27:56;100704.25;;;19.91;55.31
72110;BME280;59983;52.010;5.420;2024-03-08T17:30:26;100714.91;;;19.89;55.11
72110;BME280;59983;52.010;5.420;2024-03-08T17:32:58;100706.25;;;19.87;55.31
72110;BME280;59983;52.010;5.420;2024-03-08T17:35:28;100710.19;;;19.86;55.50
72110;BME280;59983;52.010;5.420;2024-03-08T17:37:56;100703.13;;;19.85;55.39
72110;BME280;59983;52.010;5.420;2024-03-08T17:40:28;100705.53;;;19.83;55.36
72110;BME280;59983;52.010;5.420;2024-03-08T17:42:56;100697.69;;;19.82;55.33
72110;BME280;59983;52.010;5.420;2024-03-08T17:45:24;100700.84;;;19.80;55.39
72110;BME280;59983;52.010;5.420;2024-03-08T17:47:51;100699.69;;;19.77;55.38
72110;BME280;59983;52.010;5.420;2024-03-08T17:50:20;100697.34;;;19.76;55.30
72110;BME280;59983;52.010;5.420;2024-03-08T17:52:48;100696.19;;;19.73;55.43
72110;BME280;59983;52.010;5.420;2024-03-08T17:55:17;100693.09;;;19.71;55.31
72110;BME280;59983;52.010;5.420;2024-03-08T17:57:50;100695.84;;;19.71;55.19
72110;BME280;59983;52.010;5.420;2024-03-08T18:00:19;100702.94;;;19.69;55.17
72110;BME280;59983;52.010;5.420;2024-03-08T18:02:59;100697.84;;;19.67;55.47
72110;BME280;59983;52.010;5.420;2024-03-08T18:05:28;100686.09;;;19.63;55.26
72110;BME280;59983;52.010;5.420;2024-03-08T18:07:59;100695.56;;;19.62;55.35
72110;BME280;59983;52.010;5.420;2024-03-08T18:10:28;100693.19;;;19.61;55.17
72110;BME280;59983;52.010;5.420;2024-03-08T18:12:58;100690.84;;;19.59;55.47
72110;BME280;59983;52.010;5.420;2024-03-08T18:15:34;100702.28;;;19.58;55.36
72110;BME280;59983;52.010;5.420;2024-03-08T18:18:01;100696.38;;;19.56;55.08
72110;BME280;59983;52.010;5.420;2024-03-08T18:20:31;100701.13;;;19.51;55.20
72110;BME280;59983;52.010;5.420;2024-03-08T18:23:00;100694.84;;;19.51;55.24
72110;BME280;59983;52.010;5.420;2024-03-08T18:25:31;100697.63;;;19.47;55.07
72110;BME280;59983;52.010;5.420;2024-03-08T18:28:00;100690.94;;;19.48;55.23
72110;BME280;59983;52.010;5.420;2024-03-08T18:30:32;100691.00;;;19.45;55.39
72110;BME280;59983;52.010;5.420;2024-03-08T18:32:59;100685.88;;;19.43;55.37
72110;BME280;59983;52.010;5.420;2024-03-08T18:35:26;100681.19;;;19.44;55.56
72110;BME280;59983;52.010;5.420;2024-03-08T18:37:52;100680.41;;;19.40;55.41
72110;BME280;59983;52.010;5.420;2024-03-08T18:40:22;100677.66;;;19.40;55.53
72110;BME280;59983;52.010;5.420;2024-03-08T18:42:51;100673.00;;;19.37;55.43
72110;BME280;59983;52.010;5.420;2024-03-08T18:45:19;100673.41;;;19.35;55.43
72110;BME280;59983;52.010;5.420;2024-03-08T18:47:50;100671.81;;;19.34;55.52
72110;BME280;59983;52.010;5.420;2024-03-08T18:50:19;100673.44;;;19.32;55.53
72110;BME280;59983;52.010;5.420;2024-03-08T18:52:47;100668.34;;;19.30;55.60
72110;BME280;59983;52.010;5.420;2024-03-08T18:55:15;100658.53;;;19.29;55.50
72110;BME280;59983;52.010;5.420;2024-03-08T18:57:43;100662.47;;;19.28;55.72
72110;BME280;59983;52.010;5.420;2024-03-08T19:00:13;100662.47;;;19.28;55.63
72110;BME280;59983;52.010;5.420;2024-03-08T19:02:48;100659.34;;;19.26;55.73
72110;BME280;59983;52.010;5.420;2024-03-08T19:05:16;100659.75;;;19.24;55.75
72110;BME280;59983;52.010;5.420;2024-03-08T19:07:47;100647.97;;;19.24;55.70
72110;BME280;59983;52.010;5.420;2024-03-08T19:10:17;100649.94;;;19.23;55.73
72110;BME280;59983;52.010;5.420;2024-03-08T19:12:53;100644.06;;;19.21;55.70
72110;BME280;59983;52.010;5.420;2024-03-08T19:15:20;100641.72;;;19.20;55.70
72110;BME280;59983;52.010;5.420;2024-03-08T19:17:52;100631.53;;;19.17;55.79
72110;BME280;59983;52.010;5.420;2024-03-08T19:20:21;100628.78;;;19.17;55.59
72110;BME280;59983;52.010;5.420;2024-03-08T19:22:51;100630.38;;;19.14;55.71
72110;BME280;59983;52.010;5.420;2024-03-08T19:25:24;100628.84;;;19.13;56.05
72110;BME280;59983;52.010;5.420;2024-03-08T19:28:01;100626.09;;;19.13;55.82
72110;BME280;59983;52.010;5.420;2024-03-08T19:30:31;100630.81;;;19.13;55.75
72110;BME280;59983;52.010;5.420;2024-03-08T19:32:59;100628.47;;;19.11;55.90
72110;BME280;59983;52.010;5.420;2024-03-08T19:35:27;100622.59;;;19.09;55.94
72110;BME280;59983;52.010;5.420;2024-03-08T19:37:57;100627.69;;;19.07;55.82
72110;BME280;59983;52.010;5.420;2024-03-08T19:40:27;100621.84;;;19.05;55.93
72110;BME280;59983;52.010;5.420;2024-03-08T19:43:07;100621.44;;;19.07;55.84
72110;BME280;59983;52.010;5.420;2024-03-08T19:45:37;100621.47;;;19.03;55.87
72110;BME280;59983;52.010;5.420;2024-03-08T19:48:09;100615.19;;;19.03;55.87
72110;BME280;59983;52.010;5.420;2024-03-08T19:50:42;100608.91;;;19.02;55.94
72110;BME280;59983;52.010;5.420;2024-03-08T19:53:10;100612.09;;;19.01;56.04
72110;BME280;59983;52.010;5.420;2024-03-08T19:55:38;100619.94;;;18.99;56.01
72110;BME280;59983;52.010;5.420;2024-03-08T19:58:07;100614.84;;;18.97;56.00
72110;BME280;59983;52.010;5.420;2024-03-08T20:00:34;100607.44;;;18.94;56.13
72110;BME280;59983;52.010;5.420;2024-03-08T20:03:02;100608.22;;;18.94;56.08
72110;BME280;59983;52.010;5.420;2024-03-08T20:05:30;100607.44;;;18.94;56.18
72110;BME280;59983;52.010;5.420;2024-03-08T20:07:57;100612.16;;;18.93;56.25
72110;BME280;59983;52.010;5.420;2024-03-08T20:10:31;100614.13;;;18.93;56.31
72110;BME280;59983;52.010;5.420;2024-03-08T20:12:58;100618.06;;;18.92;56.30
72110;BME280;59983;52.010;5.420;2024-03-08T20:15:25;100599.59;;;18.92;56.27
72110;BME280;59983;52.010;5.420;2024-03-08T20:17:53;100607.84;;;18.92;56.30
72110;BME280;59983;52.010;5.420;2024-03-08T20:20:21;100611.38;;;18.93;56.52
72110;BME280;59983;52.010;5.420;2024-03-08T20:22:52;100611.38;;;18.93;56.54
72110;BME280;59983;52.010;5.420;2024-03-08T20:25:20;100600.38;;;18.93;56.35
72110;BME280;59983;52.010;5.420;2024-03-08T20:27:55;100599.59;;;18.92;56.40
72110;BME280;59983;52.010;5.420;2024-03-08T20:30:29;100596.44;;;18.94;56.40
72110;BME280;59983;52.010;5.420;2024-03-08T20:33:00;100601.56;;;18.92;56.58
72110;BME280;59983;52.010;5.420;2024-03-08T20:35:30;100599.59;;;18.92;56.48
72110;BME280;59983;52.010;5.420;2024-03-08T20:38:01;100594.09;;;18.92;56.40
72110;BME280;59983;52.010;5.420;2024-03-08T20:40:29;100593.31;;;18.92;56.62
72110;BME280;59983;52.010;5.420;2024-03-08T20:43:04;100592.91;;;18.93;56.60
72110;BME280;59983;52.010;5.420;2024-03-08T20:45:31;100588.56;;;18.96;56.61
72110;BME280;59983;52.010;5.420;2024-03-08T20:47:58;100577.97;;;18.94;56.47
72110;BME280;59983;52.010;5.420;2024-03-08T20:50:27;100579.53;;;18.95;56.77
72110;BME280;59983;52.010;5.420;2024-03-08T20:52:54;100582.28;;;18.95;56.56
72110;BME280;59983;52.010;5.420;2024-03-08T20:55:21;100577.56;;;18.96;56.63
72110;BME280;59983;52.010;5.420;2024-03-08T20:57:51;100577.56;;;18.96;56.59
72110;BME280;59983;52.010;5.420;2024-03-08T21:00:21;100578.34;;;18.96;56.72
72110;BME280;59983;52.010;5.420;2024-03-08T21:03:10;100575.59;;;18.96;56.70
72110;BME280;59983;52.010;5.420;2024-03-08T21:05:41;100580.66;;;18.98;56.95
72110;BME280;59983;52.010;5.420;2024-03-08T21:08:10;100575.94;;;18.99;56.72
72110;BME280;59983;52.010;5.420;2024-03-08T21:10:47;100583.81;;;19.00;56.61
72110;BME280;59983;52.010;5.420;2024-03-08T21:13:14;100584.59;;;19.01;56.77
72110;BME280;59983;52.010;5.420;2024-03-08T21:15:41;100581.44;;;19.02;56.85
72110;BME280;59983;52.010;5.420;2024-03-08T21:18:11;100582.63;;;19.01;56.73
72110;BME280;59983;52.010;5.420;2024-03-08T21:20:39;100581.44;;;19.02;56.82
72110;BME280;59983;52.010;5.420;2024-03-08T21:23:08;100579.47;;;19.03;56.69
72110;BME280;59983;52.010;5.420;2024-03-08T21:25:37;100572.41;;;19.02;56.98
72110;BME280;59983;52.010;5.420;2024-03-08T21:28:06;100574.75;;;19.03;56.83
72110;BME280;59983;52.010;5.420;2024-03-08T21:30:33;100572.78;;;19.04;56.73
72110;BME280;59983;52.010;5.420;2024-03-08T21:33:01;100577.84;;;19.05;56.73
72110;BME280;59983;52.010;5.420;2024-03-08T21:35:34;100568.81;;;19.05;56.76
72110;BME280;59983;52.010;5.420;2024-03-08T21:38:01;100564.09;;;19.05;56.72
72110;BME280;59983;52.010;5.420;2024-03-08T21:40:29;100573.53;;;19.04;56.83
72110;BME280;59983;52.010;5.420;2024-03-08T21:42:58;100565.28;;;19.04;56.86
72110;BME280;59983;52.010;5.420;2024-03-08T21:45:27;100560.56;;;19.05;56.78
72110;BME280;59983;52.010;5.420;2024-03-08T21:47:57;100570.78;;;19.04;56.62
72110;BME280;59983;52.010;5.420;2024-03-08T21:50:30;100559.03;;;19.04;56.77
72110;BME280;59983;52.010;5.420;2024-03-08T21:52:57;100557.47;;;19.03;56.90
72110;BME280;59983;52.010;5.420;2024-03-08T21:55:24;100561.00;;;19.03;56.76
72110;BME280;59983;52.010;5.420;2024-03-08T21:57:53;100556.69;;;19.02;57.01
72110;BME280;59983;52.010;5.420;2024-03-08T22:00:20;100556.69;;;19.02;56.92
72110;BME280;59983;52.010;5.420;2024-03-08T22:02:50;100566.13;;;19.01;56.86
72110;BME280;59983;52.010;5.420;2024-03-08T22:05:18;100553.56;;;19.00;56.92
72110;BME280;59983;52.010;5.420;2024-03-08T22:07:48;100553.97;;;18.99;56.91
72110;BME280;59983;52.010;5.420;2024-03-08T22:10:17;100544.94;;;18.98;57.10
72110;BME280;59983;52.010;5.420;2024-03-08T22:12:54;100543.00;;;18.95;57.10
72110;BME280;59983;52.010;5.420;2024-03-08T22:15:22;100548.50;;;18.95;57.08
72110;BME280;59983;52.010;5.420;2024-03-08T22:17:50;100546.19;;;18.93;57.17
72110;BME280;59983;52.010;5.420;2024-03-08T22:20:19;100548.16;;;18.93;57.13
72110;BME280;59983;52.010;5.420;2024-03-08T22:22:48;100538.34;;;18.92;57.25
72110;BME280;59983;52.010;5.420;2024-03-08T22:25:16;100536.78;;;18.91;57.16
72110;BME280;59983;52.010;5.420;2024-03-08T22:27:44;100527.38;;;18.88;57.18
72110;BME280;59983;52.010;5.420;2024-03-08T22:30:11;100523.84;;;18.88;57.18
72110;BME280;59983;52.010;5.420;2024-03-08T22:32:42;100525.03;;;18.87;57.22
72110;BME280;59983;52.010;5.420;2024-03-08T22:35:08;100525.44;;;18.85;57.29
72110;BME280;59983;52.010;5.420;2024-03-08T22:37:36;100528.97;;;18.86;57.34
72110;BME280;59983;52.010;5.420;2024-03-08T22:40:04;100525.88;;;18.84;57.18